Terminal Aerodrome Forecast
Issued by NWS

Home | Current Version | Previous Version | Text Only | Print | Product List | Glossary On
Versions: 1 2 3 4 5 6 7 8 9 10 11 12 13 14
000
FTUS45 KVEF 312300
TAFHND
TAF
KHND 312320Z 0100/0124 26011KT P6SM SCT110 SCT250
     FM010700 04010KT P6SM SCT250
     FM011500 15007KT P6SM FEW110 SCT250=

USA.gov is the U.S. government's official web portal to all federal, state and local government web resources and services.